sensor_id;sensor_type;location;lat;lon;timestamp;pressure;altitude;pressure_sealevel;temperature;humidity
76128;BME280;64873;50.102;14.434;2022-12-07T00:01:19;99116.91;;;3.65;73.00
76128;BME280;64873;50.102;14.434;2022-12-07T00:03:46;99138.41;;;3.62;73.93
76128;BME280;64873;50.102;14.434;2022-12-07T00:06:14;99133.06;;;3.70;73.52
76128;BME280;64873;50.102;14.434;2022-12-07T00:08:39;99123.25;;;3.56;73.75
76128;BME280;64873;50.102;14.434;2022-12-07T00:13:35;99126.09;;;3.77;73.44
76128;BME280;64873;50.102;14.434;2022-12-07T00:18:38;99125.16;;;3.70;73.52
76128;BME280;64873;50.102;14.434;2022-12-07T00:21:10;99128.19;;;3.59;74.23
76128;BME280;64873;50.102;14.434;2022-12-07T00:23:36;99110.44;;;3.44;74.41
76128;BME280;64873;50.102;14.434;2022-12-07T00:26:10;99120.56;;;3.64;73.97
76128;BME280;64873;50.102;14.434;2022-12-07T00:28:36;99116.84;;;3.50;74.51
76128;BME280;64873;50.102;14.434;2022-12-07T00:31:07;99106.25;;;3.58;74.31
76128;BME280;64873;50.102;14.434;2022-12-07T00:33:33;99117.44;;;3.60;74.18
76128;BME280;64873;50.102;14.434;2022-12-07T00:35:59;99111.75;;;3.48;74.32
76128;BME280;64873;50.102;14.434;2022-12-07T00:38:28;99121.78;;;3.53;75.04
76128;BME280;64873;50.102;14.434;2022-12-07T00:41:02;99117.25;;;3.62;73.97
76128;BME280;64873;50.102;14.434;2022-12-07T00:43:28;99111.69;;;3.57;75.05
76128;BME280;64873;50.102;14.434;2022-12-07T00:45:54;99113.97;;;3.60;74.41
76128;BME280;64873;50.102;14.434;2022-12-07T00:48:20;99110.34;;;3.61;74.80
76128;BME280;64873;50.102;14.434;2022-12-07T00:50:46;99113.91;;;3.68;74.46
76128;BME280;64873;50.102;14.434;2022-12-07T00:53:11;99106.56;;;3.55;74.56
76128;BME280;64873;50.102;14.434;2022-12-07T00:55:37;99108.06;;;3.58;74.79
76128;BME280;64873;50.102;14.434;2022-12-07T00:58:03;99105.13;;;3.53;75.11
76128;BME280;64873;50.102;14.434;2022-12-07T01:00:29;99101.66;;;3.52;75.00
76128;BME280;64873;50.102;14.434;2022-12-07T01:02:54;99106.94;;;3.52;75.00
76128;BME280;64873;50.102;14.434;2022-12-07T01:05:20;99118.91;;;3.63;74.48
76128;BME280;64873;50.102;14.434;2022-12-07T01:07:45;99123.47;;;3.69;73.95
76128;BME280;64873;50.102;14.434;2022-12-07T01:10:12;99100.28;;;3.56;74.40
76128;BME280;64873;50.102;14.434;2022-12-07T01:12:37;99123.63;;;3.53;74.66
76128;BME280;64873;50.102;14.434;2022-12-07T01:15:03;99097.19;;;3.53;74.43
76128;BME280;64873;50.102;14.434;2022-12-07T01:17:29;99114.97;;;3.59;74.37
76128;BME280;64873;50.102;14.434;2022-12-07T01:19:54;99104.63;;;3.49;74.47
76128;BME280;64873;50.102;14.434;2022-12-07T01:22:19;99113.16;;;3.59;74.53
76128;BME280;64873;50.102;14.434;2022-12-07T01:24:45;99115.63;;;3.61;74.51
76128;BME280;64873;50.102;14.434;2022-12-07T01:27:12;99115.03;;;3.51;74.87
76128;BME280;64873;50.102;14.434;2022-12-07T01:29:37;99104.69;;;3.41;74.99
76128;BME280;64873;50.102;14.434;2022-12-07T01:32:02;99123.25;;;3.56;74.94
76128;BME280;64873;50.102;14.434;2022-12-07T01:34:28;99121.13;;;3.74;74.76
76128;BME280;64873;50.102;14.434;2022-12-07T01:36:53;99116.31;;;3.55;74.80
76128;BME280;64873;50.102;14.434;2022-12-07T01:39:18;99105.97;;;3.45;74.92
76128;BME280;64873;50.102;14.434;2022-12-07T01:41:44;99113.69;;;3.55;74.93
76128;BME280;64873;50.102;14.434;2022-12-07T01:44:16;99113.47;;;3.64;74.58
76128;BME280;64873;50.102;14.434;2022-12-07T01:49:23;99107.09;;;3.51;74.66
76128;BME280;64873;50.102;14.434;2022-12-07T01:51:51;99110.00;;;3.64;74.51
76128;BME280;64873;50.102;14.434;2022-12-07T01:54:18;99078.53;;;3.54;74.12
76128;BME280;64873;50.102;14.434;2022-12-07T01:56:50;99086.97;;;3.50;73.90
76128;BME280;64873;50.102;14.434;2022-12-07T01:59:18;99100.47;;;3.55;74.48
76128;BME280;64873;50.102;14.434;2022-12-07T02:01:44;99097.41;;;3.66;73.27
76128;BME280;64873;50.102;14.434;2022-12-07T02:04:11;99088.19;;;3.39;74.22
76128;BME280;64873;50.102;14.434;2022-12-07T02:06:37;99104.81;;;3.47;74.31
76128;BME280;64873;50.102;14.434;2022-12-07T02:09:04;99105.34;;;3.66;73.56
76128;BME280;64873;50.102;14.434;2022-12-07T02:11:29;99101.41;;;3.62;73.90
76128;BME280;64873;50.102;14.434;2022-12-07T02:13:55;99088.16;;;3.47;74.27
76128;BME280;64873;50.102;14.434;2022-12-07T02:22:01;99092.38;;;3.56;73.58
76128;BME280;64873;50.102;14.434;2022-12-07T02:30:10;99094.97;;;3.64;73.77
76128;BME280;64873;50.102;14.434;2022-12-07T02:35:21;99079.09;;;3.41;73.99
76128;BME280;64873;50.102;14.434;2022-12-07T02:40:29;99090.25;;;3.52;74.14
76128;BME280;64873;50.102;14.434;2022-12-07T02:43:06;99095.88;;;3.48;74.02
76128;BME280;64873;50.102;14.434;2022-12-07T02:45:35;99079.56;;;3.45;74.31
76128;BME280;64873;50.102;14.434;2022-12-07T02:48:03;99084.91;;;3.37;74.05
76128;BME280;64873;50.102;14.434;2022-12-07T02:50:29;99085.25;;;3.34;74.41
76128;BME280;64873;50.102;14.434;2022-12-07T02:52:55;99100.66;;;3.53;73.92
76128;BME280;64873;50.102;14.434;2022-12-07T02:55:25;99089.28;;;3.53;73.96
76128;BME280;64873;50.102;14.434;2022-12-07T02:58:04;99088.28;;;3.54;73.63
76128;BME280;64873;50.102;14.434;2022-12-07T03:00:34;99082.06;;;3.46;73.58
76128;BME280;64873;50.102;14.434;2022-12-07T03:03:09;99070.50;;;3.39;74.07
76128;BME280;64873;50.102;14.434;2022-12-07T03:06:06;99084.13;;;3.51;73.51
76128;BME280;64873;50.102;14.434;2022-12-07T03:08:44;99073.41;;;3.53;73.67
76128;BME280;64873;50.102;14.434;2022-12-07T03:11:26;99062.56;;;3.47;72.83
76128;BME280;64873;50.102;14.434;2022-12-07T03:14:10;99076.41;;;3.50;73.28
76128;BME280;64873;50.102;14.434;2022-12-07T03:16:43;99066.66;;;3.50;72.85
76128;BME280;64873;50.102;14.434;2022-12-07T03:19:13;99074.88;;;3.55;72.46
76128;BME280;64873;50.102;14.434;2022-12-07T03:21:42;99078.41;;;3.47;72.72
76128;BME280;64873;50.102;14.434;2022-12-07T03:24:13;99056.69;;;3.37;72.97
76128;BME280;64873;50.102;14.434;2022-12-07T03:26:47;99057.03;;;3.34;73.00
76128;BME280;64873;50.102;14.434;2022-12-07T03:29:23;99056.16;;;3.42;72.76
76128;BME280;64873;50.102;14.434;2022-12-07T03:32:14;99060.31;;;3.36;73.14
76128;BME280;64873;50.102;14.434;2022-12-07T03:34:49;99043.19;;;3.32;73.44
76128;BME280;64873;50.102;14.434;2022-12-07T03:37:22;99051.63;;;3.51;73.18
76128;BME280;64873;50.102;14.434;2022-12-07T03:40:06;99034.94;;;3.27;73.99
76128;BME280;64873;50.102;14.434;2022-12-07T03:42:33;99039.06;;;3.30;73.23
76128;BME280;64873;50.102;14.434;2022-12-07T03:45:01;99044.09;;;3.39;72.86
76128;BME280;64873;50.102;14.434;2022-12-07T03:47:34;99039.72;;;3.32;73.52
76128;BME280;64873;50.102;14.434;2022-12-07T03:52:59;99033.50;;;3.25;73.66
76128;BME280;64873;50.102;14.434;2022-12-07T03:55:32;99044.19;;;3.31;73.60
76128;BME280;64873;50.102;14.434;2022-12-07T03:58:03;99039.53;;;3.33;72.89
76128;BME280;64873;50.102;14.434;2022-12-07T04:00:30;99045.19;;;3.30;73.00
76128;BME280;64873;50.102;14.434;2022-12-07T04:02:56;99043.19;;;3.32;73.20
76128;BME280;64873;50.102;14.434;2022-12-07T04:05:21;99031.56;;;3.18;73.23
76128;BME280;64873;50.102;14.434;2022-12-07T04:07:47;99023.34;;;3.13;73.28
76128;BME280;64873;50.102;14.434;2022-12-07T04:10:12;99033.69;;;3.23;73.82
76128;BME280;64873;50.102;14.434;2022-12-07T04:12:38;99037.66;;;3.19;73.68
76128;BME280;64873;50.102;14.434;2022-12-07T04:15:04;99032.50;;;3.26;73.89
76128;BME280;64873;50.102;14.434;2022-12-07T04:17:30;99031.97;;;3.30;73.42
76128;BME280;64873;50.102;14.434;2022-12-07T04:19:55;99030.28;;;3.37;73.31
76128;BME280;64873;50.102;14.434;2022-12-07T04:22:21;99007.84;;;3.10;73.94
76128;BME280;64873;50.102;14.434;2022-12-07T04:24:46;99026.47;;;3.17;73.80
76128;BME280;64873;50.102;14.434;2022-12-07T04:27:11;99013.13;;;3.10;74.10
76128;BME280;64873;50.102;14.434;2022-12-07T04:29:37;99031.88;;;3.24;73.80
76128;BME280;64873;50.102;14.434;2022-12-07T04:32:02;99028.91;;;3.18;73.79
76128;BME280;64873;50.102;14.434;2022-12-07T04:34:27;99014.94;;;3.10;73.41
76128;BME280;64873;50.102;14.434;2022-12-07T04:36:53;99028.09;;;3.18;73.49
76128;BME280;64873;50.102;14.434;2022-12-07T04:39:27;99019.25;;;3.11;74.25
76128;BME280;64873;50.102;14.434;2022-12-07T04:41:53;99029.84;;;3.03;74.49
76128;BME280;64873;50.102;14.434;2022-12-07T04:44:19;99030.59;;;2.88;75.05
76128;BME280;64873;50.102;14.434;2022-12-07T04:46:45;99027.28;;;2.86;74.83
76128;BME280;64873;50.102;14.434;2022-12-07T04:49:12;99043.41;;;3.00;74.48
76128;BME280;64873;50.102;14.434;2022-12-07T04:51:38;99034.00;;;2.97;74.42
76128;BME280;64873;50.102;14.434;2022-12-07T04:54:03;99030.28;;;2.83;74.73
76128;BME280;64873;50.102;14.434;2022-12-07T04:56:29;99013.03;;;2.73;74.00
76128;BME280;64873;50.102;14.434;2022-12-07T04:58:54;99006.31;;;2.62;74.20
76128;BME280;64873;50.102;14.434;2022-12-07T05:01:20;99037.94;;;2.70;75.07
76128;BME280;64873;50.102;14.434;2022-12-07T05:03:46;99035.94;;;2.72;75.06
76128;BME280;64873;50.102;14.434;2022-12-07T05:06:12;99023.50;;;2.50;75.10
76128;BME280;64873;50.102;14.434;2022-12-07T05:08:38;99038.00;;;2.54;75.90
76128;BME280;64873;50.102;14.434;2022-12-07T05:11:05;99032.09;;;2.44;76.40
76128;BME280;64873;50.102;14.434;2022-12-07T05:13:31;99016.97;;;2.37;75.84
76128;BME280;64873;50.102;14.434;2022-12-07T05:15:57;99035.19;;;2.55;75.37
76128;BME280;64873;50.102;14.434;2022-12-07T05:18:23;99024.16;;;2.52;74.91
76128;BME280;64873;50.102;14.434;2022-12-07T05:20:48;99031.09;;;2.45;75.68
76128;BME280;64873;50.102;14.434;2022-12-07T05:23:14;99034.75;;;2.44;75.80
76128;BME280;64873;50.102;14.434;2022-12-07T05:25:39;99040.38;;;2.32;75.93
76128;BME280;64873;50.102;14.434;2022-12-07T05:28:05;99034.94;;;2.34;75.98
76128;BME280;64873;50.102;14.434;2022-12-07T05:30:30;99038.06;;;2.37;75.79
76128;BME280;64873;50.102;14.434;2022-12-07T05:32:56;99024.91;;;2.29;75.43
76128;BME280;64873;50.102;14.434;2022-12-07T05:35:22;99021.16;;;2.24;75.75
76128;BME280;64873;50.102;14.434;2022-12-07T05:37:47;99004.19;;;2.18;75.29
76128;BME280;64873;50.102;14.434;2022-12-07T05:40:13;99014.19;;;2.23;74.99
76128;BME280;64873;50.102;14.434;2022-12-07T05:42:40;99010.25;;;2.27;75.23
76128;BME280;64873;50.102;14.434;2022-12-07T05:45:06;99025.53;;;2.39;74.56
76128;BME280;64873;50.102;14.434;2022-12-07T05:47:32;99026.88;;;2.35;74.85
76128;BME280;64873;50.102;14.434;2022-12-07T05:49:57;99013.16;;;2.40;75.34
76128;BME280;64873;50.102;14.434;2022-12-07T05:52:23;99008.59;;;2.26;74.49
76128;BME280;64873;50.102;14.434;2022-12-07T05:54:48;99025.19;;;2.34;74.41
76128;BME280;64873;50.102;14.434;2022-12-07T05:57:14;99028.19;;;2.31;74.57
76128;BME280;64873;50.102;14.434;2022-12-07T05:59:39;99021.28;;;2.22;74.31
76128;BME280;64873;50.102;14.434;2022-12-07T06:02:07;99024.28;;;2.19;74.60
76128;BME280;64873;50.102;14.434;2022-12-07T06:04:39;99011.28;;;2.18;74.54
76128;BME280;64873;50.102;14.434;2022-12-07T06:07:05;99008.19;;;2.06;74.88
76128;BME280;64873;50.102;14.434;2022-12-07T06:09:31;99037.16;;;2.06;75.14
76128;BME280;64873;50.102;14.434;2022-12-07T06:11:57;99024.97;;;2.13;74.50
76128;BME280;64873;50.102;14.434;2022-12-07T06:14:41;99032.19;;;2.11;74.51
76128;BME280;64873;50.102;14.434;2022-12-07T06:17:07;99026.78;;;2.04;73.77
76128;BME280;64873;50.102;14.434;2022-12-07T06:19:32;99022.84;;;1.92;74.05
76128;BME280;64873;50.102;14.434;2022-12-07T06:21:58;99015.13;;;1.91;73.70
76128;BME280;64873;50.102;14.434;2022-12-07T06:24:23;99033.06;;;1.95;73.46
76128;BME280;64873;50.102;14.434;2022-12-07T06:26:49;99030.59;;;1.94;73.87
76128;BME280;64873;50.102;14.434;2022-12-07T06:29:15;99026.44;;;1.99;73.55
76128;BME280;64873;50.102;14.434;2022-12-07T06:31:41;99029.13;;;1.91;73.21
76128;BME280;64873;50.102;14.434;2022-12-07T06:34:09;99019.75;;;1.80;73.83
76128;BME280;64873;50.102;14.434;2022-12-07T06:36:35;99034.56;;;1.90;73.96
76128;BME280;64873;50.102;14.434;2022-12-07T06:39:01;99015.81;;;1.68;74.22
76128;BME280;64873;50.102;14.434;2022-12-07T06:41:27;99011.38;;;1.77;73.31
76128;BME280;64873;50.102;14.434;2022-12-07T06:43:52;99002.97;;;1.65;74.71
76128;BME280;64873;50.102;14.434;2022-12-07T06:46:18;98999.34;;;1.66;73.65
76128;BME280;64873;50.102;14.434;2022-12-07T06:48:43;99027.97;;;1.69;74.96
76128;BME280;64873;50.102;14.434;2022-12-07T06:51:09;99023.06;;;1.66;74.66
76128;BME280;64873;50.102;14.434;2022-12-07T06:53:35;99015.81;;;1.68;74.54
76128;BME280;64873;50.102;14.434;2022-12-07T06:56:01;99021.72;;;1.62;74.96
76128;BME280;64873;50.102;14.434;2022-12-07T06:58:27;99033.41;;;1.76;75.03
76128;BME280;64873;50.102;14.434;2022-12-07T07:00:52;99037.53;;;1.95;74.49
76128;BME280;64873;50.102;14.434;2022-12-07T07:03:18;99003.63;;;1.83;73.90
76128;BME280;64873;50.102;14.434;2022-12-07T07:05:44;99025.47;;;2.08;73.69
76128;BME280;64873;50.102;14.434;2022-12-07T07:08:10;99027.56;;;2.21;73.63
76128;BME280;64873;50.102;14.434;2022-12-07T07:10:36;99026.28;;;2.17;73.60
76128;BME280;64873;50.102;14.434;2022-12-07T07:13:02;99026.56;;;2.30;73.52
76128;BME280;64873;50.102;14.434;2022-12-07T07:15:27;99016.38;;;2.11;73.19
76128;BME280;64873;50.102;14.434;2022-12-07T07:17:53;99032.84;;;2.21;73.54
76128;BME280;64873;50.102;14.434;2022-12-07T07:20:18;99030.69;;;2.17;74.28
76128;BME280;64873;50.102;14.434;2022-12-07T07:22:44;99005.41;;;1.91;74.64
76128;BME280;64873;50.102;14.434;2022-12-07T07:25:09;99015.44;;;1.87;75.05
76128;BME280;64873;50.102;14.434;2022-12-07T07:27:35;98989.75;;;1.81;75.71
76128;BME280;64873;50.102;14.434;2022-12-07T07:30:00;99029.94;;;1.92;75.27
76128;BME280;64873;50.102;14.434;2022-12-07T07:32:25;99019.06;;;1.86;75.22
76128;BME280;64873;50.102;14.434;2022-12-07T07:34:51;99025.34;;;1.85;75.25
76128;BME280;64873;50.102;14.434;2022-12-07T07:37:16;99032.25;;;1.95;74.41
76128;BME280;64873;50.102;14.434;2022-12-07T07:39:42;99024.69;;;1.83;74.82
76128;BME280;64873;50.102;14.434;2022-12-07T07:42:07;99036.69;;;1.86;74.32
76128;BME280;64873;50.102;14.434;2022-12-07T07:44:36;99029.81;;;1.77;74.57
76128;BME280;64873;50.102;14.434;2022-12-07T07:47:01;99012.53;;;1.66;75.44
76128;BME280;64873;50.102;14.434;2022-12-07T07:49:27;99035.38;;;1.90;75.89
76128;BME280;64873;50.102;14.434;2022-12-07T07:51:52;99016.41;;;2.03;76.76
76128;BME280;64873;50.102;14.434;2022-12-07T07:54:18;99029.06;;;2.16;74.86
76128;BME280;64873;50.102;14.434;2022-12-07T07:56:43;99033.13;;;2.34;73.70
76128;BME280;64873;50.102;14.434;2022-12-07T07:59:08;99035.00;;;2.65;74.12
76128;BME280;64873;50.102;14.434;2022-12-07T08:01:34;99046.72;;;2.93;73.57
76128;BME280;64873;50.102;14.434;2022-12-07T08:04:00;99038.97;;;2.92;71.07
76128;BME280;64873;50.102;14.434;2022-12-07T08:06:25;99038.50;;;2.88;71.66
76128;BME280;64873;50.102;14.434;2022-12-07T08:08:51;99016.16;;;2.68;70.34
76128;BME280;64873;50.102;14.434;2022-12-07T08:11:17;99018.81;;;2.68;70.50
76128;BME280;64873;50.102;14.434;2022-12-07T08:13:45;99029.03;;;2.71;70.32
76128;BME280;64873;50.102;14.434;2022-12-07T08:16:11;99034.91;;;2.81;69.82
76128;BME280;64873;50.102;14.434;2022-12-07T08:18:38;99035.06;;;2.88;69.39
76128;BME280;64873;50.102;14.434;2022-12-07T08:21:06;99034.25;;;2.79;70.01
76128;BME280;64873;50.102;14.434;2022-12-07T08:23:32;99031.16;;;2.76;69.67
76128;BME280;64873;50.102;14.434;2022-12-07T08:26:05;99044.13;;;2.85;70.20
76128;BME280;64873;50.102;14.434;2022-12-07T08:28:31;99039.84;;;2.84;69.82
76128;BME280;64873;50.102;14.434;2022-12-07T08:31:04;99038.66;;;2.87;70.26
76128;BME280;64873;50.102;14.434;2022-12-07T08:33:30;99036.56;;;2.82;70.95
76128;BME280;64873;50.102;14.434;2022-12-07T08:36:03;99042.16;;;2.79;71.45
76128;BME280;64873;50.102;14.434;2022-12-07T08:38:30;99034.47;;;2.70;71.15
76128;BME280;64873;50.102;14.434;2022-12-07T08:40:57;99046.50;;;2.72;72.23
76128;BME280;64873;50.102;14.434;2022-12-07T08:43:22;99041.97;;;2.89;71.95
76128;BME280;64873;50.102;14.434;2022-12-07T08:45:54;99027.16;;;2.80;71.41
76128;BME280;64873;50.102;14.434;2022-12-07T08:48:21;99048.63;;;2.77;71.41
76128;BME280;64873;50.102;14.434;2022-12-07T08:50:50;99036.19;;;2.85;71.70
76128;BME280;64873;50.102;14.434;2022-12-07T08:53:16;99030.97;;;2.77;71.81
76128;BME280;64873;50.102;14.434;2022-12-07T08:55:44;99044.56;;;2.97;71.80
76128;BME280;64873;50.102;14.434;2022-12-07T08:58:09;99051.09;;;2.78;71.34
76128;BME280;64873;50.102;14.434;2022-12-07T09:00:35;99031.97;;;2.76;71.29
76128;BME280;64873;50.102;14.434;2022-12-07T09:03:00;99035.88;;;2.88;71.12
76128;BME280;64873;50.102;14.434;2022-12-07T09:05:26;99042.44;;;2.92;70.41
76128;BME280;64873;50.102;14.434;2022-12-07T09:07:55;99025.19;;;3.05;70.10
76128;BME280;64873;50.102;14.434;2022-12-07T09:10:22;99041.09;;;2.97;70.56
76128;BME280;64873;50.102;14.434;2022-12-07T09:12:48;99042.69;;;3.06;70.13
76128;BME280;64873;50.102;14.434;2022-12-07T09:15:14;99024.97;;;3.14;70.21
76128;BME280;64873;50.102;14.434;2022-12-07T09:17:39;99034.50;;;3.24;70.13
76128;BME280;64873;50.102;14.434;2022-12-07T09:20:06;99041.06;;;3.51;68.98
76128;BME280;64873;50.102;14.434;2022-12-07T09:22:32;99049.16;;;3.72;67.68
76128;BME280;64873;50.102;14.434;2022-12-07T09:24:58;99030.78;;;3.56;69.03
76128;BME280;64873;50.102;14.434;2022-12-07T09:27:24;99011.69;;;3.45;68.27
76128;BME280;64873;50.102;14.434;2022-12-07T09:29:53;99028.34;;;3.69;67.53
76128;BME280;64873;50.102;14.434;2022-12-07T09:32:19;99021.38;;;3.76;67.57
76128;BME280;64873;50.102;14.434;2022-12-07T09:34:44;99004.78;;;3.44;67.73
76128;BME280;64873;50.102;14.434;2022-12-07T09:37:09;99015.09;;;3.77;67.63
76128;BME280;64873;50.102;14.434;2022-12-07T09:39:38;99019.78;;;3.67;68.17
76128;BME280;64873;50.102;14.434;2022-12-07T09:42:04;99013.63;;;3.52;68.57
76128;BME280;64873;50.102;14.434;2022-12-07T09:44:30;99024.66;;;3.40;68.21
76128;BME280;64873;50.102;14.434;2022-12-07T09:46:56;99024.50;;;3.57;69.12
76128;BME280;64873;50.102;14.434;2022-12-07T09:49:24;99030.97;;;3.54;68.64
76128;BME280;64873;50.102;14.434;2022-12-07T09:52:19;99030.47;;;3.73;68.81
76128;BME280;64873;50.102;14.434;2022-12-07T09:54:49;99026.28;;;3.79;67.97
76128;BME280;64873;50.102;14.434;2022-12-07T09:57:15;98959.97;;;3.36;67.82
76128;BME280;64873;50.102;14.434;2022-12-07T09:59:41;99016.44;;;3.73;68.19
76128;BME280;64873;50.102;14.434;2022-12-07T10:02:40;99010.13;;;3.74;67.99
76128;BME280;64873;50.102;14.434;2022-12-07T10:05:10;99007.94;;;3.63;68.37
76128;BME280;64873;50.102;14.434;2022-12-07T10:07:37;99005.97;;;3.80;68.10
76128;BME280;64873;50.102;14.434;2022-12-07T10:10:19;99004.31;;;3.64;68.25
76128;BME280;64873;50.102;14.434;2022-12-07T10:12:59;99010.69;;;3.69;68.08
76128;BME280;64873;50.102;14.434;2022-12-07T10:15:58;99004.84;;;3.74;68.29
76128;BME280;64873;50.102;14.434;2022-12-07T10:23:33;98996.94;;;3.74;67.61
76128;BME280;64873;50.102;14.434;2022-12-07T10:25:59;99010.91;;;3.97;67.29
76128;BME280;64873;50.102;14.434;2022-12-07T10:28:41;99000.72;;;3.94;68.08
76128;BME280;64873;50.102;14.434;2022-12-07T10:31:18;99006.09;;;4.01;67.45
76128;BME280;64873;50.102;14.434;2022-12-07T10:33:51;99013.84;;;4.03;68.02
76128;BME280;64873;50.102;14.434;2022-12-07T10:36:30;99001.44;;;3.88;67.71
76128;BME280;64873;50.102;14.434;2022-12-07T10:41:28;98995.44;;;3.94;67.84
76128;BME280;64873;50.102;14.434;2022-12-07T10:43:56;99006.44;;;3.98;67.89
76128;BME280;64873;50.102;14.434;2022-12-07T11:00:17;99009.09;;;3.83;69.13
76128;BME280;64873;50.102;14.434;2022-12-07T11:03:13;99001.78;;;3.85;68.99
76128;BME280;64873;50.102;14.434;2022-12-07T11:06:02;98990.78;;;3.82;69.62
76128;BME280;64873;50.102;14.434;2022-12-07T11:11:35;98983.72;;;3.74;70.00
76128;BME280;64873;50.102;14.434;2022-12-07T11:14:28;98982.81;;;3.67;71.27
76128;BME280;64873;50.102;14.434;2022-12-07T11:17:02;98977.03;;;3.63;70.83
76128;BME280;64873;50.102;14.434;2022-12-07T11:19:46;98975.41;;;3.62;70.93
76128;BME280;64873;50.102;14.434;2022-12-07T11:25:17;98958.34;;;3.50;71.59
76128;BME280;64873;50.102;14.434;2022-12-07T11:31:22;98956.53;;;3.51;71.22
76128;BME280;64873;50.102;14.434;2022-12-07T11:33:57;98936.50;;;3.41;71.04
76128;BME280;64873;50.102;14.434;2022-12-07T11:36:38;98958.72;;;3.62;70.62
76128;BME280;64873;50.102;14.434;2022-12-07T11:41:48;98950.19;;;3.60;69.98
76128;BME280;64873;50.102;14.434;2022-12-07T11:44:55;98952.00;;;3.74;70.23
76128;BME280;64873;50.102;14.434;2022-12-07T11:47:45;98948.00;;;3.78;69.88
76128;BME280;64873;50.102;14.434;2022-12-07T11:50:41;98947.91;;;3.86;69.95
76128;BME280;64873;50.102;14.434;2022-12-07T11:58:38;98939.06;;;4.09;69.38
76128;BME280;64873;50.102;14.434;2022-12-07T12:03:51;98931.41;;;4.14;68.54
76128;BME280;64873;50.102;14.434;2022-12-07T12:06:19;98925.84;;;4.09;67.85
76128;BME280;64873;50.102;14.434;2022-12-07T12:08:46;98929.94;;;4.26;67.75
76128;BME280;64873;50.102;14.434;2022-12-07T12:22:51;98930.56;;;5.78;65.54
76128;BME280;64873;50.102;14.434;2022-12-07T12:25:22;98920.34;;;5.19;69.18
76128;BME280;64873;50.102;14.434;2022-12-07T12:27:50;98926.75;;;5.09;69.81
76128;BME280;64873;50.102;14.434;2022-12-07T12:30:35;98921.47;;;4.88;69.56
76128;BME280;64873;50.102;14.434;2022-12-07T12:33:28;98915.69;;;4.99;70.28
76128;BME280;64873;50.102;14.434;2022-12-07T12:36:18;98925.56;;;5.12;68.55
76128;BME280;64873;50.102;14.434;2022-12-07T12:38:51;98921.59;;;4.59;66.88
76128;BME280;64873;50.102;14.434;2022-12-07T12:44:02;98907.78;;;4.27;67.68
76128;BME280;64873;50.102;14.434;2022-12-07T12:51:56;98913.78;;;4.36;67.74
76128;BME280;64873;50.102;14.434;2022-12-07T12:54:25;98915.34;;;4.30;67.98
76128;BME280;64873;50.102;14.434;2022-12-07T12:57:11;98893.03;;;4.18;68.04
76128;BME280;64873;50.102;14.434;2022-12-07T13:00:14;98889.72;;;4.16;67.51
76128;BME280;64873;50.102;14.434;2022-12-07T13:20:53;98927.44;;;4.39;67.31
76128;BME280;64873;50.102;14.434;2022-12-07T13:26:04;98932.41;;;4.27;67.39
76128;BME280;64873;50.102;14.434;2022-12-07T13:28:38;98919.38;;;4.26;67.01
76128;BME280;64873;50.102;14.434;2022-12-07T13:31:17;98922.28;;;4.31;67.03
76128;BME280;64873;50.102;14.434;2022-12-07T13:33:45;98917.00;;;4.31;67.12
76128;BME280;64873;50.102;14.434;2022-12-07T13:36:37;98924.81;;;4.39;66.49
76128;BME280;64873;50.102;14.434;2022-12-07T13:39:21;98916.38;;;4.50;65.85
76128;BME280;64873;50.102;14.434;2022-12-07T13:41:56;98915.16;;;4.46;66.08
76128;BME280;64873;50.102;14.434;2022-12-07T13:44:28;98898.47;;;4.31;66.01
76128;BME280;64873;50.102;14.434;2022-12-07T13:49:30;98912.31;;;4.48;65.22
76128;BME280;64873;50.102;14.434;2022-12-07T13:52:14;98891.44;;;4.38;64.58
76128;BME280;64873;50.102;14.434;2022-12-07T13:54:49;98896.78;;;4.45;63.92
76128;BME280;64873;50.102;14.434;2022-12-07T13:57:16;98906.81;;;4.49;64.26
76128;BME280;64873;50.102;14.434;2022-12-07T13:59:42;98917.19;;;4.51;64.59
76128;BME280;64873;50.102;14.434;2022-12-07T14:04:45;98913.13;;;4.48;64.96
76128;BME280;64873;50.102;14.434;2022-12-07T14:07:22;98909.84;;;4.46;64.97
76128;BME280;64873;50.102;14.434;2022-12-07T14:09:56;98907.75;;;4.99;69.93
76128;BME280;64873;50.102;14.434;2022-12-07T14:12:23;98917.44;;;5.14;64.21
76128;BME280;64873;50.102;14.434;2022-12-07T14:14:49;98914.00;;;5.41;64.96
76128;BME280;64873;50.102;14.434;2022-12-07T14:17:17;98913.59;;;5.44;68.36
76128;BME280;64873;50.102;14.434;2022-12-07T14:19:49;98926.06;;;6.06;70.24
76128;BME280;64873;50.102;14.434;2022-12-07T14:22:34;98914.38;;;5.38;67.77
76128;BME280;64873;50.102;14.434;2022-12-07T14:25:18;98894.72;;;5.26;63.83
76128;BME280;64873;50.102;14.434;2022-12-07T14:27:50;98925.53;;;5.05;64.97
76128;BME280;64873;50.102;14.434;2022-12-07T14:30:17;98920.78;;;5.22;69.66
76128;BME280;64873;50.102;14.434;2022-12-07T14:32:43;98928.00;;;5.35;69.03
76128;BME280;64873;50.102;14.434;2022-12-07T14:35:15;98907.84;;;5.13;68.77
76128;BME280;64873;50.102;14.434;2022-12-07T14:37:43;98905.97;;;4.64;68.62
76128;BME280;64873;50.102;14.434;2022-12-07T14:40:17;98926.75;;;4.67;67.89
76128;BME280;64873;50.102;14.434;2022-12-07T14:42:43;98923.78;;;4.55;70.20
76128;BME280;64873;50.102;14.434;2022-12-07T14:45:19;98912.47;;;3.95;70.14
76128;BME280;64873;50.102;14.434;2022-12-07T14:47:45;98909.28;;;3.85;69.99
76128;BME280;64873;50.102;14.434;2022-12-07T14:50:16;98917.31;;;3.77;70.66
76128;BME280;64873;50.102;14.434;2022-12-07T14:52:46;98913.09;;;3.68;71.45
76128;BME280;64873;50.102;14.434;2022-12-07T14:55:33;98921.50;;;3.71;71.66
76128;BME280;64873;50.102;14.434;2022-12-07T14:57:58;98901.09;;;3.65;71.81
76128;BME280;64873;50.102;14.434;2022-12-07T15:00:25;98898.88;;;3.54;71.83
76128;BME280;64873;50.102;14.434;2022-12-07T15:02:51;98888.50;;;3.53;73.21
76128;BME280;64873;50.102;14.434;2022-12-07T15:05:18;98911.66;;;3.65;72.58
76128;BME280;64873;50.102;14.434;2022-12-07T15:07:44;98902.06;;;3.50;72.10